createdAt,value
2023-02-02T00:01:28.189Z,324.00
2023-02-02T00:04:33.350Z,298.88
2023-02-02T00:07:36.736Z,286.38
2023-02-02T00:10:39.999Z,330.63
2023-02-02T00:13:44.779Z,439.45
2023-02-02T00:16:48.999Z,650.20
2023-02-02T00:19:52.296Z,356.90
2023-02-02T00:22:55.553Z,367.98
2023-02-02T00:25:58.740Z,393.23
2023-02-02T00:29:03.621Z,370.67
2023-02-02T00:32:07.326Z,370.67
2023-02-02T00:35:11.121Z,438.25
2023-02-02T00:38:14.305Z,405.58
2023-02-02T00:41:18.130Z,442.38
2023-02-02T00:44:40.353Z,473.88
2023-02-02T00:47:44.700Z,395.75
2023-02-02T00:50:48.522Z,295.63
2023-02-02T00:53:51.656Z,414.17
2023-02-02T00:56:55.042Z,339.17
2023-02-02T00:59:59.604Z,339.58
2023-02-02T01:03:04.393Z,418.98
2023-02-02T01:06:07.970Z,378.35
2023-02-02T01:09:11.161Z,307.58
2023-02-02T01:12:14.349Z,346.20
2023-02-02T01:15:19.290Z,357.98
2023-02-02T01:18:22.505Z,399.23
2023-02-02T01:21:27.140Z,446.67
2023-02-02T01:24:30.491Z,363.80
2023-02-02T01:27:33.861Z,471.30
2023-02-02T01:30:38.654Z,473.92
2023-02-02T01:33:43.641Z,719.65
2023-02-02T01:36:46.878Z,355.83
2023-02-02T01:39:50.527Z,363.48
2023-02-02T01:42:53.798Z,448.80
2023-02-02T01:45:59.971Z,451.42
2023-02-02T01:49:07.598Z,359.08
2023-02-02T01:52:13.783Z,570.33
2023-02-02T01:55:20.745Z,433.67
2023-02-02T01:58:29.253Z,402.52
2023-02-02T02:01:33.975Z,375.83
2023-02-02T02:04:37.297Z,437.52
2023-02-02T02:07:44.699Z,437.92
2023-02-02T02:10:48.242Z,448.50
2023-02-02T02:14:10.420Z,478.90
2023-02-02T02:17:32.408Z,539.90
2023-02-02T02:21:17.005Z,483.88
2023-02-02T02:25:05.910Z,453.60
2023-02-02T02:28:37.716Z,497.38
2023-02-02T02:32:19.206Z,492.52
2023-02-02T02:35:32.254Z,494.08
2023-02-02T02:38:39.862Z,537.20
2023-02-02T02:41:47.623Z,430.05
2023-02-02T02:44:52.277Z,541.40
2023-02-02T02:47:57.783Z,604.88
2023-02-02T02:51:10.413Z,472.70
2023-02-02T02:54:16.478Z,446.38
2023-02-02T02:57:35.641Z,468.45
2023-02-02T03:04:10.980Z,460.38
2023-02-02T03:07:21.516Z,427.95
2023-02-02T03:10:27.923Z,407.88
2023-02-02T03:13:32.575Z,526.30
2023-02-02T03:16:35.801Z,469.15
2023-02-02T03:19:40.340Z,471.98
2023-02-02T03:22:43.629Z,456.77
2023-02-02T03:25:47.216Z,444.33
2023-02-02T03:28:51.672Z,497.40
2023-02-02T03:31:55.118Z,588.25
2023-02-02T03:34:59.728Z,470.23
2023-02-02T03:38:03.755Z,547.55
2023-02-02T03:41:07.948Z,485.00
2023-02-02T03:44:11.112Z,461.92
2023-02-02T03:47:14.272Z,505.92
2023-02-02T03:50:19.320Z,492.88
2023-02-02T03:53:22.513Z,448.17
2023-02-02T03:56:25.819Z,467.58
2023-02-02T03:59:28.986Z,489.35
2023-02-02T04:02:32.248Z,498.85
2023-02-02T04:05:36.812Z,673.50
2023-02-02T04:08:40.353Z,445.50
2023-02-02T04:11:43.517Z,449.50
2023-02-02T04:14:46.833Z,405.80
2023-02-02T04:17:50.011Z,452.67
2023-02-02T04:20:59.644Z,449.10
2023-02-02T04:24:02.785Z,362.98
2023-02-02T04:27:06.098Z,481.75
2023-02-02T04:30:10.738Z,497.83
2023-02-02T04:33:14.196Z,616.20
2023-02-02T04:36:18.730Z,421.17
2023-02-02T04:39:21.858Z,531.45
2023-02-02T04:42:25.262Z,509.42
2023-02-02T04:45:28.975Z,516.30
2023-02-02T04:48:32.527Z,485.27
2023-02-02T04:51:38.180Z,510.50
2023-02-02T04:54:41.811Z,507.88
2023-02-02T04:57:45.192Z,443.38
2023-02-02T05:00:48.406Z,469.52
2023-02-02T05:03:51.922Z,505.27
2023-02-02T05:06:56.487Z,484.95
2023-02-02T05:09:59.672Z,481.77
2023-02-02T05:13:02.903Z,496.35
2023-02-02T05:16:06.992Z,490.63
2023-02-02T05:19:12.824Z,569.38
2023-02-02T05:22:17.331Z,484.23
2023-02-02T05:25:20.460Z,460.95
2023-02-02T05:28:24.069Z,560.58
2023-02-02T05:31:27.451Z,661.92
2023-02-02T05:34:30.792Z,556.17
2023-02-02T05:37:35.275Z,538.33
2023-02-02T05:40:38.419Z,541.67
2023-02-02T05:43:41.812Z,546.22
2023-02-02T05:46:45.628Z,483.27
2023-02-02T05:49:57.387Z,501.73
2023-02-02T05:53:02.115Z,555.10
2023-02-02T05:56:05.743Z,466.40
2023-02-02T05:59:09.065Z,505.25
2023-02-02T06:02:12.439Z,579.03
2023-02-02T06:05:15.912Z,523.80
2023-02-02T06:08:20.679Z,517.88
2023-02-02T06:11:24.289Z,483.40
2023-02-02T06:14:27.787Z,479.65
2023-02-02T06:17:30.974Z,483.75
2023-02-02T06:20:34.465Z,489.20
2023-02-02T06:23:43.374Z,515.95
2023-02-02T06:26:46.795Z,556.15
2023-02-02T06:29:50.184Z,456.55
2023-02-02T06:32:53.748Z,544.00
2023-02-02T06:36:02.222Z,541.65
2023-02-02T06:39:09.721Z,493.23
2023-02-02T06:42:21.379Z,430.38
2023-02-02T06:45:25.579Z,446.13
2023-02-02T06:48:29.219Z,407.38
2023-02-02T06:51:32.425Z,406.58
2023-02-02T06:54:37.063Z,399.08
2023-02-02T06:57:40.179Z,595.58
2023-02-02T07:00:43.393Z,548.67
2023-02-02T07:03:50.085Z,434.08
2023-02-02T07:06:53.340Z,387.95
2023-02-02T07:09:58.575Z,335.17
2023-02-02T07:13:01.733Z,381.48
2023-02-02T07:16:05.778Z,398.25
2023-02-02T07:19:09.200Z,356.23
2023-02-02T07:22:12.701Z,348.70
2023-02-02T07:25:17.486Z,429.67
2023-02-02T07:28:20.724Z,430.30
2023-02-02T07:31:25.608Z,232.52
2023-02-02T07:34:29.226Z,360.00
2023-02-02T07:37:32.613Z,505.42
2023-02-02T07:40:37.344Z,303.90
2023-02-02T07:43:40.601Z,264.30
2023-02-02T07:46:44.089Z,239.23
2023-02-02T07:49:47.265Z,574.97
2023-02-02T07:52:50.607Z,252.60
2023-02-02T07:55:55.312Z,328.35
2023-02-02T07:58:59.074Z,230.00
2023-02-02T08:02:02.761Z,303.15
2023-02-02T08:05:07.637Z,223.00
2023-02-02T08:08:10.848Z,188.77
2023-02-02T08:11:16.729Z,223.23
2023-02-02T08:14:19.933Z,200.13
2023-02-02T08:17:23.784Z,227.50
2023-02-02T08:20:27.024Z,194.70
2023-02-02T08:23:31.338Z,234.30
2023-02-02T08:26:35.931Z,263.65
2023-02-02T08:29:40.312Z,174.50
2023-02-02T08:32:43.518Z,251.45
2023-02-02T08:35:47.212Z,234.65
2023-02-02T08:38:50.893Z,233.35
2023-02-02T08:41:57.849Z,250.00
2023-02-02T08:46:02.361Z,259.73
2023-02-02T08:48:24.372Z,404.05
2023-02-02T08:51:27.647Z,270.35
2023-02-02T08:54:30.991Z,290.23
2023-02-02T08:57:35.758Z,266.00
2023-02-02T09:00:39.165Z,240.77
2023-02-02T09:03:42.768Z,219.98
2023-02-02T09:06:46.918Z,218.02
2023-02-02T09:09:50.977Z,236.93
2023-02-02T09:12:55.965Z,250.23
2023-02-02T09:16:01.784Z,249.07
2023-02-02T09:19:05.895Z,353.00
2023-02-02T09:22:09.328Z,321.17
2023-02-02T09:25:12.585Z,352.52
2023-02-02T09:28:17.217Z,346.38
2023-02-02T09:31:20.734Z,361.15
2023-02-02T09:34:24.033Z,391.83
2023-02-02T09:37:27.237Z,333.00
2023-02-02T09:40:35.290Z,383.27
2023-02-02T09:43:48.965Z,374.88
2023-02-02T09:47:05.607Z,361.17
2023-02-02T09:50:18.305Z,374.75
2023-02-02T09:53:54.604Z,367.23
2023-02-02T09:57:01.331Z,382.00
2023-02-02T10:00:15.284Z,374.60
2023-02-02T10:03:22.981Z,463.90
2023-02-02T10:06:34.641Z,394.52
2023-02-02T10:09:47.393Z,406.88
2023-02-02T10:12:55.550Z,418.02
2023-02-02T10:16:07.597Z,397.40
2023-02-02T10:19:14.738Z,409.23
2023-02-02T10:22:22.691Z,405.25
2023-02-02T10:25:28.945Z,382.13
2023-02-02T10:28:43.565Z,402.20
2023-02-02T10:31:58.550Z,380.65
2023-02-02T10:35:22.644Z,367.70
2023-02-02T10:38:36.702Z,485.20
2023-02-02T10:41:49.672Z,369.67
2023-02-02T10:44:58.082Z,307.13
2023-02-02T10:48:03.128Z,308.25
2023-02-02T10:51:19.057Z,431.33
2023-02-02T10:54:54.951Z,374.90
2023-02-02T10:58:06.123Z,551.25
2023-02-02T11:01:11.630Z,348.88
2023-02-02T11:04:34.068Z,353.35
2023-02-02T11:07:38.289Z,334.88
2023-02-02T11:10:41.497Z,291.38
2023-02-02T11:13:49.214Z,328.80
2023-02-02T11:17:03.139Z,293.67
2023-02-02T11:20:24.729Z,305.27
2023-02-02T11:23:29.813Z,330.65
2023-02-02T11:26:46.013Z,272.83
2023-02-02T11:29:50.867Z,245.55
2023-02-02T11:32:55.693Z,402.67
2023-02-02T11:36:02.400Z,288.75
2023-02-02T11:39:21.959Z,375.77
2023-02-02T11:42:27.333Z,473.00
2023-02-02T11:45:35.524Z,302.27
2023-02-02T11:48:40.708Z,313.60
2023-02-02T11:51:56.605Z,458.42
2023-02-02T11:55:02.934Z,295.38
2023-02-02T11:58:27.593Z,294.25
2023-02-02T12:01:32.799Z,389.15
2023-02-02T12:04:36.027Z,304.05
2023-02-02T12:07:42.290Z,332.88
2023-02-02T12:10:50.933Z,435.60
2023-02-02T12:14:06.899Z,331.02
2023-02-02T12:17:20.732Z,319.80
2023-02-02T12:20:36.628Z,315.52
2023-02-02T12:23:54.675Z,472.60
2023-02-02T12:27:06.350Z,534.03
2023-02-02T12:30:25.052Z,355.75
2023-02-02T12:33:36.202Z,362.30
2023-02-02T12:36:50.774Z,340.38
2023-02-02T12:40:10.369Z,397.95
2023-02-02T12:43:31.332Z,363.40
2023-02-02T12:46:50.175Z,526.22
2023-02-02T12:50:05.815Z,342.05
2023-02-02T12:53:27.468Z,300.80
2023-02-02T12:56:42.075Z,437.65
2023-02-02T13:00:02.782Z,529.40
2023-02-02T13:03:19.276Z,325.00
2023-02-02T13:06:42.618Z,285.08
2023-02-02T13:09:53.047Z,466.30
2023-02-02T13:13:02.523Z,326.73
2023-02-02T13:16:10.537Z,414.73
2023-02-02T13:19:22.296Z,390.55
2023-02-02T13:22:29.691Z,287.65
2023-02-02T13:25:38.453Z,330.27
2023-02-02T13:28:48.795Z,292.75
2023-02-02T13:35:04.653Z,308.00
2023-02-02T13:38:17.185Z,393.02
2023-02-02T13:41:20.528Z,378.60
2023-02-02T13:44:32.704Z,342.25
2023-02-02T13:47:41.589Z,536.33
2023-02-02T13:50:59.320Z,309.75
2023-02-02T13:54:33.068Z,339.20
2023-02-02T13:58:12.809Z,309.92
2023-02-02T14:01:20.048Z,355.63
2023-02-02T14:04:26.608Z,328.38
2023-02-02T14:07:41.761Z,360.60
2023-02-02T14:10:57.743Z,423.98
2023-02-02T14:14:39.011Z,364.10
2023-02-02T14:17:55.406Z,374.00
2023-02-02T14:20:58.818Z,384.42
2023-02-02T14:24:03.457Z,361.38
2023-02-02T14:27:45.482Z,376.98
2023-02-02T14:31:20.056Z,399.15
2023-02-02T14:34:34.949Z,370.58
2023-02-02T14:37:49.164Z,390.77
2023-02-02T14:40:59.517Z,439.98
2023-02-02T14:47:47.890Z,420.60
2023-02-02T14:50:54.243Z,395.45
2023-02-02T14:54:01.414Z,406.67
2023-02-02T14:57:08.039Z,429.75
2023-02-02T15:00:23.032Z,455.45
2023-02-02T15:03:52.991Z,455.20
2023-02-02T15:06:59.738Z,416.27
2023-02-02T15:10:03.078Z,448.67
2023-02-02T15:13:08.784Z,427.67
2023-02-02T15:16:21.228Z,439.63
2023-02-02T15:19:32.328Z,495.70
2023-02-02T15:22:42.906Z,494.42
2023-02-02T15:25:50.761Z,401.38
2023-02-02T15:28:59.572Z,482.98
2023-02-02T15:32:04.416Z,484.52
2023-02-02T15:35:14.101Z,477.95
2023-02-02T15:38:21.161Z,510.75
2023-02-02T15:41:28.676Z,430.27
2023-02-02T15:44:32.075Z,488.77
2023-02-02T15:47:38.721Z,449.77
2023-02-02T15:50:46.756Z,458.90
2023-02-02T15:53:52.926Z,485.88
2023-02-02T15:56:57.381Z,456.88
2023-02-02T16:00:03.556Z,470.40
2023-02-02T16:03:20.714Z,687.95
2023-02-02T16:06:24.520Z,373.15
2023-02-02T16:09:36.983Z,580.67
2023-02-02T16:12:44.619Z,418.85
2023-02-02T16:15:57.462Z,452.57
2023-02-02T16:19:06.264Z,518.15
2023-02-02T16:22:17.694Z,445.08
2023-02-02T16:25:25.843Z,451.25
2023-02-02T16:28:29.791Z,444.10
2023-02-02T16:31:33.783Z,494.20
2023-02-02T16:34:47.544Z,554.95
2023-02-02T16:37:51.232Z,734.17
2023-02-02T16:41:11.249Z,590.10
2023-02-02T16:44:38.744Z,715.63
2023-02-02T16:47:42.587Z,792.10
2023-02-02T16:50:48.912Z,517.15
2023-02-02T16:54:02.111Z,431.45
2023-02-02T16:57:07.557Z,551.17
2023-02-02T17:00:21.997Z,544.17
2023-02-02T17:03:32.217Z,640.78
2023-02-02T17:10:12.834Z,503.05
2023-02-02T17:13:38.021Z,547.05
2023-02-02T17:16:41.550Z,669.33
2023-02-02T17:19:45.022Z,521.80
2023-02-02T17:22:54.856Z,519.42
2023-02-02T17:25:58.354Z,528.38
2023-02-02T17:29:05.446Z,700.15
2023-02-02T17:32:09.919Z,444.63
2023-02-02T17:35:17.163Z,611.25
2023-02-02T17:38:21.586Z,495.15
2023-02-02T17:41:25.599Z,495.48
2023-02-02T17:44:31.415Z,466.35
2023-02-02T17:47:37.584Z,468.27
2023-02-02T17:50:43.281Z,622.63
2023-02-02T17:53:46.649Z,421.15
2023-02-02T17:56:50.089Z,456.08
2023-02-02T17:59:54.767Z,522.75
2023-02-02T18:03:01.667Z,560.05
2023-02-02T18:06:06.007Z,484.52
2023-02-02T18:09:10.935Z,464.60
2023-02-02T18:12:14.307Z,477.33
2023-02-02T18:15:19.423Z,439.50
2023-02-02T18:18:23.376Z,472.33
2023-02-02T18:21:27.435Z,477.90
2023-02-02T18:24:30.952Z,606.25
2023-02-02T18:27:34.823Z,472.05
2023-02-02T18:30:41.187Z,389.45
2023-02-02T18:33:44.915Z,546.42
2023-02-02T18:36:48.439Z,469.50
2023-02-02T18:39:52.103Z,661.17
2023-02-02T18:42:55.546Z,561.38
2023-02-02T18:46:02.033Z,518.72
2023-02-02T18:49:05.498Z,598.45
2023-02-02T18:52:09.543Z,427.45
2023-02-02T18:55:14.137Z,469.85
2023-02-02T18:58:17.915Z,529.72
2023-02-02T19:01:26.121Z,571.38
2023-02-02T19:04:30.867Z,560.58
2023-02-02T19:07:51.870Z,464.23
2023-02-02T19:11:02.230Z,551.20
2023-02-02T19:17:21.849Z,558.50
2023-02-02T19:20:28.765Z,525.33
2023-02-02T19:23:35.219Z,566.67
2023-02-02T19:26:42.143Z,420.40
2023-02-02T19:29:48.672Z,574.03
2023-02-02T19:32:53.608Z,462.50
2023-02-02T19:35:56.900Z,516.13
2023-02-02T19:39:06.328Z,483.33
2023-02-02T19:42:12.565Z,500.57
2023-02-02T19:45:22.669Z,429.35
2023-02-02T19:48:29.271Z,575.97
2023-02-02T19:51:44.590Z,551.72
2023-02-02T19:54:49.620Z,451.73
2023-02-02T19:57:54.846Z,453.98
2023-02-02T20:01:00.256Z,654.10
2023-02-02T20:04:05.241Z,506.40
2023-02-02T20:07:15.012Z,479.00
2023-02-02T20:10:24.551Z,491.05
2023-02-02T20:13:39.523Z,536.03
2023-02-02T20:16:51.064Z,486.70
2023-02-02T20:19:56.301Z,628.17
2023-02-02T20:22:59.935Z,452.10
2023-02-02T20:26:05.700Z,454.38
2023-02-02T20:29:18.295Z,433.05
2023-02-02T20:32:26.518Z,567.63
2023-02-02T20:35:39.437Z,477.10
2023-02-02T20:38:42.900Z,471.05
2023-02-02T20:41:48.229Z,486.30
2023-02-02T20:44:52.895Z,475.83
2023-02-02T20:47:56.471Z,457.48
2023-02-02T20:51:01.594Z,472.58
2023-02-02T20:54:05.327Z,476.23
2023-02-02T20:57:08.924Z,461.40
2023-02-02T21:00:16.048Z,487.38
2023-02-02T21:03:20.428Z,499.25
2023-02-02T21:06:26.766Z,518.05
2023-02-02T21:09:31.792Z,513.83
2023-02-02T21:12:36.625Z,428.58
2023-02-02T21:15:40.484Z,477.45
2023-02-02T21:18:47.391Z,426.50
2023-02-02T21:21:52.357Z,463.80
2023-02-02T21:24:56.082Z,476.63
2023-02-02T21:28:00.429Z,455.15
2023-02-02T21:31:03.981Z,417.10
2023-02-02T21:34:08.884Z,467.42
2023-02-02T21:37:16.341Z,502.98
2023-02-02T21:40:28.728Z,479.52
2023-02-02T21:43:34.115Z,474.05
2023-02-02T21:46:39.557Z,549.72
2023-02-02T21:49:43.487Z,485.90
2023-02-02T21:52:48.567Z,545.90
2023-02-02T21:55:54.992Z,495.95
2023-02-02T21:58:59.987Z,512.40
2023-02-02T22:02:26.495Z,559.80
2023-02-02T22:05:35.846Z,462.60
2023-02-02T22:08:40.873Z,555.63
2023-02-02T22:11:48.687Z,522.42
2023-02-02T22:14:54.371Z,522.83
2023-02-02T22:17:57.602Z,584.78
2023-02-02T22:21:00.906Z,589.95
2023-02-02T22:24:10.701Z,488.20
2023-02-02T22:27:20.174Z,592.37
2023-02-02T22:30:28.872Z,450.40
2023-02-02T22:33:32.409Z,530.30
2023-02-02T22:36:35.669Z,506.33
2023-02-02T22:39:42.770Z,525.30
2023-02-02T22:42:46.071Z,485.65
2023-02-02T22:45:49.533Z,508.80
2023-02-02T22:48:52.859Z,472.67
2023-02-02T22:51:56.255Z,465.98
2023-02-02T22:55:01.240Z,455.55
2023-02-02T22:58:04.437Z,517.97
2023-02-02T23:01:07.661Z,616.22
2023-02-02T23:04:11.065Z,436.10
2023-02-02T23:07:14.436Z,402.70
2023-02-02T23:10:21.084Z,555.40
2023-02-02T23:13:24.369Z,476.33
2023-02-02T23:16:27.845Z,480.42
2023-02-02T23:19:31.117Z,572.38
2023-02-02T23:22:34.663Z,378.67
2023-02-02T23:25:39.980Z,360.55
2023-02-02T23:28:43.746Z,361.25
2023-02-02T23:31:47.070Z,384.08
2023-02-02T23:34:50.369Z,496.00
2023-02-02T23:37:53.703Z,514.42
2023-02-02T23:41:00.348Z,311.33
2023-02-02T23:44:03.589Z,265.15
2023-02-02T23:47:06.968Z,253.40
2023-02-02T23:50:11.484Z,256.38
2023-02-02T23:53:16.030Z,331.88
2023-02-02T23:56:21.278Z,285.63
2023-02-02T23:59:24.588Z,717.78
